Time;durP1;ratioP1;P1;durP2;ratioP2;P2;SDS_P1;SDS_P2;PMS_P1;PMS_P2;Temp;Humidity;BMP_temperature;BMP_pressure;BME280_temperature;BME280_humidity;BME280_pressure;Samples;Min_cycle;Max_cycle;Signal;HPM_P1;HPM_P2
2021/07/04 00:02:57;;;;;;;6.35;5.32;;;;;;;19.20;60.37;101185.72;6201066;28;20237;-61
2021/07/04 00:06:19;;;;;;;6.78;5.90;;;;;;;19.32;60.57;101189.66;6204785;28;20539;-61
2021/07/04 00:09:41;;;;;;;6.53;5.93;;;;;;;19.19;60.73;101189.28;6198876;28;20241;-61
2021/07/04 00:13:02;;;;;;;6.25;5.65;;;;;;;19.16;60.68;101186.75;6204097;28;20257;-61
2021/07/04 00:16:23;;;;;;;6.65;5.63;;;;;;;19.42;59.86;101186.56;6203945;28;20236;-62
2021/07/04 00:19:44;;;;;;;7.05;6.03;;;;;;;19.31;60.07;101188.81;6198870;28;20237;-61
2021/07/04 00:23:07;;;;;;;6.10;5.60;;;;;;;19.07;60.79;101190.59;6206248;28;22053;-61
2021/07/04 00:26:27;;;;;;;5.82;5.18;;;;;;;19.21;60.16;101187.44;6206817;28;20232;-61
2021/07/04 00:29:48;;;;;;;6.57;5.97;;;;;;;19.21;60.18;101190.06;6208432;28;20233;-62
2021/07/04 00:33:09;;;;;;;7.28;6.32;;;;;;;19.20;60.55;101191.00;6179570;28;20242;-61
2021/07/04 00:36:32;;;;;;;8.40;7.60;;;;;;;19.06;60.87;101179.19;6183911;28;20233;-60
2021/07/04 00:39:54;;;;;;;6.53;5.95;;;;;;;19.11;60.52;101180.78;6202468;28;20248;-62
2021/07/04 00:43:15;;;;;;;8.00;7.22;;;;;;;19.10;60.57;101173.81;6197502;28;20221;-62
2021/07/04 00:46:36;;;;;;;7.18;6.47;;;;;;;18.77;61.92;101176.78;6203706;28;20233;-62
2021/07/04 00:49:58;;;;;;;7.25;6.65;;;;;;;18.68;62.05;101183.25;6202393;28;20229;-61
2021/07/04 00:53:22;;;;;;;6.90;6.30;;;;;;;18.78;61.98;101168.78;6198515;28;20229;-61
2021/07/04 00:56:44;;;;;;;8.38;7.60;;;;;;;18.97;61.24;101178.69;6197718;28;20312;-61
2021/07/04 01:00:10;;;;;;;8.07;7.32;;;;;;;19.20;61.06;101169.88;6203744;28;20554;-61
2021/07/04 01:03:31;;;;;;;8.75;7.95;;;;;;;19.08;61.51;101165.94;6193792;28;20229;-61
2021/07/04 01:06:53;;;;;;;9.50;8.68;;;;;;;18.95;61.61;101165.56;6207361;28;20244;-61
2021/07/04 01:10:16;;;;;;;8.93;8.13;;;;;;;18.91;61.84;101161.31;6200891;28;20233;-61
2021/07/04 01:13:39;;;;;;;11.88;10.88;;;;;;;19.03;61.20;101160.81;6200861;28;20240;-62
2021/07/04 01:17:05;;;;;;;12.00;10.98;;;;;;;18.75;62.08;101162.78;6195650;28;20233;-63
2021/07/04 01:20:30;;;;;;;10.75;9.85;;;;;;;18.95;61.88;101165.56;6201570;28;20237;-62
2021/07/04 01:23:54;;;;;;;12.40;11.40;;;;;;;18.97;61.45;101158.44;6201258;28;20229;-61
2021/07/04 01:27:16;;;;;;;11.80;10.70;;;;;;;18.76;62.21;101164.50;6200395;28;20269;-61
2021/07/04 01:30:37;;;;;;;11.75;10.75;;;;;;;18.88;61.69;101161.41;6203893;28;20381;-60
2021/07/04 01:33:58;;;;;;;10.85;9.90;;;;;;;18.66;62.70;101164.84;6194071;28;20324;-61
2021/07/04 01:37:26;;;;;;;9.38;8.52;;;;;;;18.58;62.74;101151.09;6200009;28;20237;-60
2021/07/04 01:40:49;;;;;;;9.63;8.75;;;;;;;18.67;62.50;101150.75;6189424;28;20237;-62
2021/07/04 01:44:12;;;;;;;10.38;9.57;;;;;;;18.66;62.46;101145.53;6209733;28;20233;-62
2021/07/04 01:47:38;;;;;;;10.93;9.95;;;;;;;18.34;63.88;101151.97;6201991;28;20233;-61
2021/07/04 01:51:00;;;;;;;9.63;8.73;;;;;;;18.32;63.51;101143.25;6202374;28;20248;-63
2021/07/04 01:54:25;;;;;;;10.05;9.32;;;;;;;18.47;63.16;101146.19;6196942;28;20226;-62
2021/07/04 01:57:48;;;;;;;10.15;9.25;;;;;;;18.64;62.82;101142.94;6204707;28;20328;-61
2021/07/04 02:01:14;;;;;;;8.93;8.18;;;;;;;18.76;62.45;101133.69;6208639;28;20229;-61
2021/07/04 02:04:40;;;;;;;8.98;8.25;;;;;;;18.70;62.83;101140.06;6200196;28;20236;-61
2021/07/04 02:08:13;;;;;;;9.55;8.80;;;;;;;18.73;62.30;101138.22;6200444;28;20228;-61
2021/07/04 02:11:39;;;;;;;8.55;7.85;;;;;;;18.67;62.90;101134.91;6198004;28;20618;-60
2021/07/04 02:15:11;;;;;;;9.25;8.55;;;;;;;18.61;62.83;101140.44;6190051;28;20240;-61
2021/07/04 02:18:40;;;;;;;8.98;8.15;;;;;;;18.66;62.73;101138.47;6201773;28;20600;-60
2021/07/04 02:22:20;;;;;;;9.73;8.85;;;;;;;18.44;62.85;101143.69;6197029;28;20312;-61
2021/07/04 02:25:56;;;;;;;9.65;8.90;;;;;;;18.27;63.39;101141.66;6207031;28;21106;-62
2021/07/04 02:29:18;;;;;;;8.68;7.97;;;;;;;18.61;62.25;101137.78;6191905;28;20248;-62
2021/07/04 02:32:44;;;;;;;9.27;8.45;;;;;;;18.45;63.09;101140.13;6195362;28;20360;-62
2021/07/04 02:36:07;;;;;;;9.35;8.43;;;;;;;18.60;62.62;101138.69;6195731;28;20237;-61
2021/07/04 02:39:28;;;;;;;7.82;7.13;;;;;;;18.47;62.74;101137.44;6208051;28;20536;-60
2021/07/04 02:42:55;;;;;;;8.60;7.82;;;;;;;18.25;63.44;101138.22;6189330;28;20252;-62
2021/07/04 02:46:16;;;;;;;9.13;8.43;;;;;;;18.44;63.10;101142.84;6207170;28;20847;-61
2021/07/04 02:49:39;;;;;;;8.00;7.40;;;;;;;18.24;63.86;101146.16;6207143;28;20610;-61
2021/07/04 02:53:04;;;;;;;8.45;7.60;;;;;;;18.51;62.95;101146.94;6210311;28;20240;-62
2021/07/04 02:56:25;;;;;;;8.88;8.13;;;;;;;18.35;63.04;101144.00;6201819;28;20346;-63
2021/07/04 02:59:47;;;;;;;8.60;7.90;;;;;;;18.40;63.18;101135.97;6203756;28;20650;-62
2021/07/04 03:03:11;;;;;;;9.70;8.82;;;;;;;18.13;63.96;101154.47;6211901;28;20226;-62
2021/07/04 03:06:33;;;;;;;8.68;7.82;;;;;;;18.23;63.67;101139.19;6208396;28;20236;-62
2021/07/04 03:09:55;;;;;;;11.07;10.18;;;;;;;18.28;63.56;101148.66;6198813;28;20225;-62
2021/07/04 03:13:19;;;;;;;9.98;9.07;;;;;;;18.30;62.65;101145.97;6204030;28;20514;-62
2021/07/04 03:16:41;;;;;;;9.15;8.40;;;;;;;17.79;64.44;101150.31;6201087;28;20261;-60
2021/07/04 03:20:03;;;;;;;16.30;12.18;;;;;;;17.62;65.31;101150.03;6187890;28;20602;-61
2021/07/04 03:23:26;;;;;;;14.05;12.65;;;;;;;17.57;65.74;101144.06;6207503;28;20233;-62
2021/07/04 03:26:52;;;;;;;13.38;12.05;;;;;;;17.84;64.54;101140.53;6203530;28;20229;-61
2021/07/04 03:30:16;;;;;;;9.23;8.52;;;;;;;17.87;64.13;101132.53;6200602;28;20319;-61
2021/07/04 03:33:39;;;;;;;9.32;8.07;;;;;;;17.80;64.26;101125.72;6203996;28;20229;-62
2021/07/04 03:37:02;;;;;;;8.35;7.65;;;;;;;17.81;63.99;101137.97;6194768;28;20328;-62
2021/07/04 03:40:27;;;;;;;8.65;7.68;;;;;;;17.96;63.66;101138.38;6200753;28;20233;-62
2021/07/04 03:43:54;;;;;;;7.82;7.07;;;;;;;18.01;63.38;101136.44;6199407;28;20676;-61
2021/07/04 03:47:16;;;;;;;8.00;7.43;;;;;;;17.93;63.75;101131.44;6201057;28;20609;-62
2021/07/04 03:50:37;;;;;;;8.60;7.90;;;;;;;18.03;63.49;101139.88;6202370;28;20513;-62
2021/07/04 03:53:58;;;;;;;8.75;8.05;;;;;;;17.93;63.96;101138.47;6198585;28;20233;-62
2021/07/04 03:57:23;;;;;;;7.75;7.15;;;;;;;17.90;64.50;101137.69;6202041;28;20493;-61
2021/07/04 04:00:53;;;;;;;8.13;7.47;;;;;;;18.01;64.08;101136.44;6199229;28;20244;-63
2021/07/04 04:04:24;;;;;;;19.90;17.92;;;;;;;17.99;64.36;101140.91;6169464;28;20236;-60
2021/07/04 04:07:45;;;;;;;12.70;11.50;;;;;;;18.13;64.17;101138.66;6207125;28;20549;-62
2021/07/04 04:11:08;;;;;;;10.02;9.15;;;;;;;18.12;64.00;101139.56;6197152;28;20237;-62
2021/07/04 04:14:38;;;;;;;9.98;9.00;;;;;;;18.41;63.33;101143.78;6202581;28;20628;-62
2021/07/04 04:18:04;;;;;;;9.55;8.85;;;;;;;18.45;63.14;101149.81;6202784;28;20229;-63
2021/07/04 04:21:26;;;;;;;8.77;7.97;;;;;;;18.50;62.82;101148.72;6201175;28;20234;-62
2021/07/04 04:24:54;;;;;;;7.93;7.22;;;;;;;18.57;62.51;101146.75;6200968;28;20241;-62
2021/07/04 04:28:16;;;;;;;6.97;6.43;;;;;;;18.71;62.23;101143.59;6213294;28;20236;-62
2021/07/04 04:31:38;;;;;;;6.97;6.38;;;;;;;18.78;62.30;101146.84;6183020;28;20340;-61
2021/07/04 04:35:00;;;;;;;8.10;7.35;;;;;;;18.93;61.55;101146.28;6197916;28;20698;-61
2021/07/04 04:38:21;;;;;;;7.18;6.68;;;;;;;18.96;61.11;101140.91;6201056;28;20316;-61
2021/07/04 04:41:42;;;;;;;7.18;6.47;;;;;;;19.09;60.98;101149.16;6205190;28;20241;-61
2021/07/04 04:45:04;;;;;;;8.10;7.50;;;;;;;18.81;61.50;101150.25;6198474;28;20314;-61
2021/07/04 04:48:26;;;;;;;7.47;6.65;;;;;;;18.95;61.18;101141.78;6196005;28;20465;-62
2021/07/04 04:51:47;;;;;;;7.28;6.65;;;;;;;19.30;60.47;101139.53;6191422;28;20240;-62
2021/07/04 04:55:09;;;;;;;7.78;7.18;;;;;;;19.19;60.00;101136.47;6196365;28;20233;-62
2021/07/04 04:58:30;;;;;;;6.22;5.72;;;;;;;19.65;59.32;101134.59;6174651;28;20332;-61
2021/07/04 05:01:51;;;;;;;6.70;6.10;;;;;;;19.90;58.45;101129.16;6193717;28;20545;-62
2021/07/04 05:05:14;;;;;;;8.75;7.95;;;;;;;19.68;59.12;101124.75;6198406;28;20258;-62
2021/07/04 05:08:35;;;;;;;7.25;6.63;;;;;;;19.33;60.35;101131.50;6204163;28;20631;-62
2021/07/04 05:11:56;;;;;;;7.05;6.45;;;;;;;19.62;59.81;101129.47;6207546;28;20248;-62
2021/07/04 05:15:17;;;;;;;8.60;7.75;;;;;;;19.64;59.03;101127.59;6203127;28;20221;-62
2021/07/04 05:18:38;;;;;;;8.60;7.80;;;;;;;19.61;59.85;101131.22;6202428;28;20225;-63
2021/07/04 05:22:00;;;;;;;9.90;9.10;;;;;;;20.21;58.32;101122.53;6199894;28;20241;-61
2021/07/04 05:25:23;;;;;;;9.95;8.93;;;;;;;20.21;58.27;101128.66;6182313;28;20237;-62
2021/07/04 05:28:45;;;;;;;7.63;6.93;;;;;;;20.13;58.42;101125.50;6205339;28;20229;-63
2021/07/04 05:32:06;;;;;;;6.95;6.35;;;;;;;20.54;57.56;101124.59;6200555;28;20240;-63
2021/07/04 05:35:28;;;;;;;7.95;7.20;;;;;;;20.25;58.15;101124.09;6202592;28;21670;-61
2021/07/04 05:38:50;;;;;;;7.15;6.55;;;;;;;20.20;58.48;101121.69;6207220;28;20603;-62
2021/07/04 05:42:11;;;;;;;6.35;5.85;;;;;;;20.68;57.63;101123.97;6190870;28;20241;-62
2021/07/04 05:45:32;;;;;;;6.63;6.03;;;;;;;20.98;56.78;101122.53;6192046;28;20699;-62
2021/07/04 05:48:53;;;;;;;6.10;5.60;;;;;;;21.13;55.97;101114.78;6192460;28;20733;-62
2021/07/04 05:52:14;;;;;;;7.45;6.30;;;;;;;21.31;55.42;101116.53;6193589;28;20241;-61
2021/07/04 05:55:36;;;;;;;5.95;4.75;;;;;;;21.51;54.99;101115.56;6187165;28;20494;-62
2021/07/04 05:58:57;;;;;;;5.78;5.28;;;;;;;21.54;54.72;101106.59;6188855;28;20233;-61
2021/07/04 06:02:18;;;;;;;5.20;4.80;;;;;;;21.51;54.87;101101.47;6194968;28;20232;-62
2021/07/04 06:05:39;;;;;;;7.10;5.88;;;;;;;21.77;53.72;101097.47;6193124;28;20264;-61
2021/07/04 06:08:59;;;;;;;5.18;4.70;;;;;;;21.51;54.45;101097.03;6191456;28;20265;-62
2021/07/04 06:12:22;;;;;;;5.60;5.18;;;;;;;21.37;54.71;101100.34;6204023;28;20868;-62
2021/07/04 06:15:43;;;;;;;6.88;5.55;;;;;;;21.60;53.83;101104.50;6209769;28;20665;-61
2021/07/04 06:19:04;;;;;;;5.07;4.68;;;;;;;21.99;53.39;101103.38;6205740;28;20236;-62
2021/07/04 06:22:25;;;;;;;5.82;5.22;;;;;;;22.42;52.04;101110.88;6211277;28;20579;-63
2021/07/04 06:25:47;;;;;;;4.43;3.70;;;;;;;22.57;51.29;101107.41;6204113;28;20229;-62
2021/07/04 06:29:09;;;;;;;5.38;4.93;;;;;;;22.01;52.85;101103.31;6205252;28;20609;-62
2021/07/04 06:32:30;;;;;;;5.63;5.13;;;;;;;22.39;51.73;101108.38;6192550;28;20744;-61
2021/07/04 06:35:50;;;;;;;5.10;4.63;;;;;;;22.80;50.92;101100.81;6205056;28;20397;-62
2021/07/04 06:39:12;;;;;;;5.13;4.72;;;;;;;22.36;51.55;101101.47;6198708;28;20237;-61
2021/07/04 06:42:33;;;;;;;5.63;5.13;;;;;;;21.75;52.50;101094.94;6206359;28;20765;-61
2021/07/04 06:45:56;;;;;;;6.15;5.05;;;;;;;21.77;52.30;101095.72;6207126;28;20328;-62
2021/07/04 06:49:17;;;;;;;13.13;5.45;;;;;;;22.25;51.79;101093.22;6207637;28;20225;-62
2021/07/04 06:52:38;;;;;;;4.00;3.60;;;;;;;22.86;50.70;101099.63;6206661;28;20241;-63
2021/07/04 06:55:59;;;;;;;4.57;4.25;;;;;;;21.78;51.92;101099.22;6209248;28;20221;-61
2021/07/04 06:59:20;;;;;;;4.65;4.25;;;;;;;22.29;51.04;101099.22;6206812;28;20260;-62
2021/07/04 07:02:43;;;;;;;4.55;4.15;;;;;;;22.36;51.34;101100.63;6204856;28;20236;-63
2021/07/04 07:06:04;;;;;;;4.90;4.47;;;;;;;22.27;50.31;101091.34;6211714;28;20237;-63
2021/07/04 07:09:25;;;;;;;3.70;3.40;;;;;;;23.38;48.90;101087.84;6208602;28;20233;-62
2021/07/04 07:12:46;;;;;;;4.68;4.28;;;;;;;23.70;46.96;101079.75;6211730;28;20260;-62
2021/07/04 07:16:07;;;;;;;5.57;3.80;;;;;;;23.31;47.53;101091.81;6210340;28;20253;-61
2021/07/04 07:19:30;;;;;;;3.83;3.20;;;;;;;23.70;47.40;101080.59;6207494;28;20260;-61
2021/07/04 07:22:51;;;;;;;3.63;3.30;;;;;;;23.12;46.90;101084.88;6212262;28;20229;-61
2021/07/04 07:26:18;;;;;;;4.43;4.13;;;;;;;23.29;47.00;101081.25;6202359;28;20278;-62
2021/07/04 07:29:40;;;;;;;3.58;3.28;;;;;;;23.97;46.03;101077.25;6207932;28;20671;-62
2021/07/04 07:33:01;;;;;;;5.90;3.45;;;;;;;23.24;46.40;101071.84;6211176;28;20518;-62
2021/07/04 07:36:23;;;;;;;3.75;3.45;;;;;;;23.63;46.30;101073.94;6207175;28;20233;-63
2021/07/04 07:39:44;;;;;;;3.10;2.90;;;;;;;24.51;45.29;101072.13;6206704;28;20628;-62
2021/07/04 07:43:06;;;;;;;3.85;3.53;;;;;;;24.83;44.58;101074.53;6195219;28;20228;-62
2021/07/04 07:46:29;;;;;;;6.18;5.15;;;;;;;25.13;43.90;101068.16;6203454;28;20569;-62
2021/07/04 07:49:51;;;;;;;3.72;3.40;;;;;;;24.60;44.66;101072.50;6205103;28;20249;-62
2021/07/04 07:53:13;;;;;;;3.25;3.05;;;;;;;24.75;44.17;101074.16;6210079;28;20622;-62
2021/07/04 07:56:35;;;;;;;3.95;3.60;;;;;;;24.43;45.46;101074.41;6209761;28;20232;-61
2021/07/04 07:59:55;;;;;;;3.30;3.00;;;;;;;24.40;44.77;101066.59;6207173;28;20315;-62
2021/07/04 08:03:16;;;;;;;3.80;3.47;;;;;;;24.14;45.54;101074.41;6209099;28;20237;-62
2021/07/04 08:06:37;;;;;;;3.65;3.35;;;;;;;24.79;44.74;101075.69;6206897;28;20233;-63
2021/07/04 08:10:03;;;;;;;4.72;4.32;;;;;;;24.78;44.01;101068.66;6202094;28;20268;-61
2021/07/04 08:13:24;;;;;;;3.95;3.65;;;;;;;23.96;45.09;101071.09;6198084;28;20523;-62
2021/07/04 08:16:48;;;;;;;5.05;3.85;;;;;;;23.55;45.58;101068.22;6208863;28;20252;-62
2021/07/04 08:20:10;;;;;;;3.95;3.65;;;;;;;24.02;44.87;101069.88;6198943;28;20240;-62
2021/07/04 08:23:31;;;;;;;3.90;3.47;;;;;;;24.02;44.51;101067.22;6209175;28;20602;-61
2021/07/04 08:26:54;;;;;;;3.95;3.65;;;;;;;24.43;43.67;101079.72;6209565;28;20232;-61
2021/07/04 08:30:16;;;;;;;4.38;3.83;;;;;;;23.87;45.33;101076.97;6207867;28;20249;-62
2021/07/04 08:33:37;;;;;;;3.67;3.38;;;;;;;24.28;44.91;101067.38;6208926;28;20240;-62
2021/07/04 08:36:58;;;;;;;3.95;3.55;;;;;;;24.96;43.76;101062.13;6204165;28;20225;-62
2021/07/04 08:40:19;;;;;;;4.25;3.53;;;;;;;25.17;43.32;101059.00;6206309;28;20603;-61
2021/07/04 08:43:41;;;;;;;4.55;4.20;;;;;;;25.15;43.55;101056.44;6208766;28;20324;-61
2021/07/04 08:47:03;;;;;;;4.60;3.88;;;;;;;25.78;41.36;101059.31;6205639;28;20225;-62
2021/07/04 08:50:24;;;;;;;5.50;3.65;;;;;;;25.63;41.97;101042.59;6204356;28;20234;-62
2021/07/04 08:53:45;;;;;;;3.85;3.55;;;;;;;25.77;40.49;101038.13;6208877;28;20508;-62
2021/07/04 08:57:08;;;;;;;4.75;3.97;;;;;;;25.24;41.25;101039.00;6183129;28;20256;-62
2021/07/04 09:00:31;;;;;;;4.38;4.00;;;;;;;25.78;40.46;101037.13;6182746;28;20225;-62
2021/07/04 09:03:54;;;;;;;5.18;4.65;;;;;;;25.78;40.12;101034.47;6185309;28;20316;-62
2021/07/04 09:07:25;;;;;;;4.93;4.10;;;;;;;25.19;41.07;101029.59;6204507;28;20242;-62
2021/07/04 09:11:05;;;;;;;4.35;3.95;;;;;;;26.20;39.89;101030.63;6196394;28;20537;-63
2021/07/04 09:14:27;;;;;;;8.55;5.43;;;;;;;26.10;40.25;101029.56;6206949;28;20538;-53
2021/07/04 09:17:51;;;;;;;7.82;4.82;;;;;;;26.32;40.50;101026.22;6197255;28;20241;-63
2021/07/04 09:21:21;;;;;;;7.53;6.80;;;;;;;27.09;39.23;101018.75;6200780;28;20320;-53
2021/07/04 09:24:43;;;;;;;56.60;52.53;;;;;;;27.47;38.14;101025.72;6206902;28;21665;-53
2021/07/04 09:28:07;;;;;;;882.10;794.88;;;;;;;28.13;37.02;101026.88;6197807;28;20226;-57
2021/07/04 09:31:28;;;;;;;647.47;408.10;;;;;;;28.67;36.64;101023.38;6205181;28;20260;-55
2021/07/04 09:35:00;;;;;;;138.68;129.38;;;;;;;28.40;35.67;101018.44;6196955;28;20636;-52
2021/07/04 09:38:22;;;;;;;134.98;122.78;;;;;;;28.20;35.23;101020.06;6195191;28;20836;-55
2021/07/04 09:42:08;;;;;;;134.43;124.07;;;;;;;28.30;37.29;101021.00;6204945;28;20229;-57
2021/07/04 09:45:41;;;;;;;45.25;41.85;;;;;;;28.26;37.39;101012.38;6201459;28;20233;-63
2021/07/04 09:49:08;;;;;;;27.15;24.65;;;;;;;27.80;37.94;101015.16;6192016;28;20248;-53
2021/07/04 09:52:31;;;;;;;9.90;9.10;;;;;;;27.59;38.57;101010.53;6193663;28;20313;-63
2021/07/04 09:55:53;;;;;;;4.95;4.55;;;;;;;27.79;35.93;101013.47;6205173;28;20796;-59
2021/07/04 09:59:22;;;;;;;6.55;5.68;;;;;;;27.76;37.27;101005.66;6211140;28;20240;-62
2021/07/04 10:02:43;;;;;;;4.85;4.40;;;;;;;27.50;36.03;101004.06;6202086;28;20241;-62
2021/07/04 10:06:08;;;;;;;5.43;5.03;;;;;;;27.09;37.20;101005.38;6205297;28;20264;-59
2021/07/04 10:09:32;;;;;;;5.25;4.75;;;;;;;27.47;37.82;101004.31;6208810;28;20236;-61
2021/07/04 10:12:53;;;;;;;5.90;5.43;;;;;;;27.09;37.66;101009.88;6202862;28;20269;-61
2021/07/04 10:16:15;;;;;;;5.75;5.18;;;;;;;27.16;37.58;101004.91;6204463;28;20233;-60
2021/07/04 10:19:37;;;;;;;6.65;5.50;;;;;;;27.62;37.54;101004.94;6205594;28;20245;-59
2021/07/04 10:22:59;;;;;;;5.63;5.18;;;;;;;28.16;36.56;101000.69;6207949;28;20233;-60
2021/07/04 10:26:21;;;;;;;5.88;5.38;;;;;;;27.41;36.35;100990.56;6207440;28;20270;-60
2021/07/04 10:29:43;;;;;;;14.40;5.60;;;;;;;26.96;37.43;100999.25;6206852;28;20240;-60
2021/07/04 10:33:07;;;;;;;5.93;5.43;;;;;;;26.84;37.53;100984.16;6210151;28;20237;-61
2021/07/04 10:36:28;;;;;;;5.95;5.47;;;;;;;27.10;36.43;100984.84;6205911;28;21822;-63
2021/07/04 10:40:08;;;;;;;5.53;5.05;;;;;;;27.63;35.87;100987.91;6205468;28;20244;-62
2021/07/04 10:44:07;;;;;;;5.30;4.90;;;;;;;27.69;35.93;100986.59;6198280;28;20232;-59
2021/07/04 10:47:35;;;;;;;4.85;4.45;;;;;;;27.78;36.59;100985.00;6204447;28;20220;-58
2021/07/04 10:51:05;;;;;;;5.70;5.18;;;;;;;28.01;36.90;100981.38;6207922;28;20529;-62
2021/07/04 10:54:48;;;;;;;7.35;6.65;;;;;;;26.98;37.12;100975.94;6207067;28;20237;-58
2021/07/04 10:58:08;;;;;;;6.05;5.55;;;;;;;27.11;38.97;100974.06;6185654;28;20783;-59
2021/07/04 11:01:54;;;;;;;5.35;4.95;;;;;;;27.56;36.92;100969.78;6205444;28;20533;-58
2021/07/04 11:05:18;;;;;;;5.75;5.05;;;;;;;27.62;36.92;100969.31;6195556;28;20233;-58
2021/07/04 11:08:52;;;;;;;5.90;5.28;;;;;;;27.29;37.22;100968.28;6210156;28;20241;-58
2021/07/04 11:12:27;;;;;;;5.43;4.97;;;;;;;27.67;36.59;100970.66;6211284;28;20590;-58
2021/07/04 11:15:49;;;;;;;6.80;6.18;;;;;;;26.78;37.62;100960.59;6211476;28;20229;-59
2021/07/04 11:19:11;;;;;;;6.97;6.35;;;;;;;27.07;37.91;100961.06;6204977;28;20491;-58
2021/07/04 11:22:57;;;;;;;6.28;5.57;;;;;;;28.21;36.58;100954.84;6204009;28;20230;-57
2021/07/04 11:26:19;;;;;;;5.38;4.88;;;;;;;28.67;35.68;100951.91;6207102;28;20225;-57
2021/07/04 11:29:40;;;;;;;5.05;4.55;;;;;;;29.05;34.75;100938.94;6207424;28;20229;-57
2021/07/04 11:33:30;;;;;;;5.22;4.72;;;;;;;29.63;33.77;100941.97;6214060;28;20237;-57
2021/07/04 11:36:50;;;;;;;6.57;5.88;;;;;;;29.34;34.24;100938.28;6210132;28;20249;-53
2021/07/04 11:40:13;;;;;;;5.70;5.10;;;;;;;29.27;35.55;100937.97;6198992;28;20386;-58
2021/07/04 11:43:35;;;;;;;6.60;5.40;;;;;;;29.54;34.97;100936.56;6213040;28;20379;-55
2021/07/04 11:46:56;;;;;;;6.95;5.22;;;;;;;29.26;34.64;100941.63;6207008;28;20229;-52
2021/07/04 11:50:17;;;;;;;6.65;6.03;;;;;;;29.23;36.62;100932.00;6203304;28;20225;-55
2021/07/04 11:53:49;;;;;;;5.85;5.35;;;;;;;29.25;36.57;100932.75;6187389;28;20237;-53
2021/07/04 11:57:31;;;;;;;6.05;5.25;;;;;;;29.52;35.18;100928.63;6200111;28;20328;-56
2021/07/04 12:00:52;;;;;;;5.13;4.72;;;;;;;29.91;34.51;100925.28;6196986;28;20253;-51
2021/07/04 12:04:14;;;;;;;6.70;5.32;;;;;;;29.25;36.09;100929.19;6205108;28;20571;-51
2021/07/04 12:07:35;;;;;;;5.80;5.32;;;;;;;29.36;35.58;100922.91;6162611;28;20721;-56
2021/07/04 12:10:56;;;;;;;7.15;6.55;;;;;;;29.65;34.42;100918.53;6181984;28;20241;-56
2021/07/04 12:14:30;;;;;;;5.72;5.22;;;;;;;28.68;34.64;100915.25;6186222;28;20674;-57
2021/07/04 12:17:52;;;;;;;6.07;5.53;;;;;;;28.48;34.38;100907.03;6129981;28;20303;-54
2021/07/04 12:21:13;;;;;;;5.97;5.47;;;;;;;28.65;35.36;100905.66;6181572;28;20237;-55
2021/07/04 12:24:37;;;;;;;5.80;5.32;;;;;;;29.47;33.85;100901.38;6193944;28;20237;-54
2021/07/04 12:28:00;;;;;;;5.85;5.35;;;;;;;29.03;34.36;100904.22;6195278;28;20264;-56
2021/07/04 12:31:22;;;;;;;6.05;5.55;;;;;;;29.78;32.96;100904.91;6201525;28;20240;-57
2021/07/04 12:34:43;;;;;;;6.47;5.88;;;;;;;29.31;33.82;100903.69;6203535;28;20241;-57
2021/07/04 12:38:08;;;;;;;7.13;6.45;;;;;;;29.38;33.66;100903.03;6200493;28;20506;-55
2021/07/04 12:41:34;;;;;;;6.57;5.97;;;;;;;29.29;32.66;100903.81;6199351;28;20249;-56
2021/07/04 12:45:02;;;;;;;6.07;5.68;;;;;;;29.72;33.32;100894.72;6203097;28;20723;-55
2021/07/04 12:48:26;;;;;;;5.70;5.20;;;;;;;29.83;33.48;100891.06;6201000;28;20236;-54
2021/07/04 12:51:47;;;;;;;5.90;5.40;;;;;;;29.35;33.66;100892.56;6200048;28;20760;-54
2021/07/04 12:55:08;;;;;;;7.05;6.43;;;;;;;29.42;33.97;100890.19;6200541;28;20629;-54
2021/07/04 12:58:34;;;;;;;7.68;6.93;;;;;;;29.27;33.24;100884.31;6193200;28;20260;-56
2021/07/04 13:01:56;;;;;;;5.93;5.53;;;;;;;29.58;33.17;100882.47;6186511;28;20313;-52
2021/07/04 13:05:37;;;;;;;6.30;5.70;;;;;;;29.03;34.36;100885.44;6187843;28;20225;-55
2021/07/04 13:08:59;;;;;;;5.65;5.25;;;;;;;30.16;33.71;100880.97;6197575;28;20225;-54
2021/07/04 13:12:22;;;;;;;9.88;6.43;;;;;;;29.58;33.21;100877.09;6194129;28;20237;-53
2021/07/04 13:15:42;;;;;;;6.10;5.60;;;;;;;28.85;34.71;100876.31;6197719;28;20311;-54
2021/07/04 13:19:24;;;;;;;6.03;5.53;;;;;;;29.17;34.86;100870.88;6191612;28;20229;-53
2021/07/04 13:22:48;;;;;;;6.10;5.70;;;;;;;30.17;34.34;100862.03;6195786;28;20244;-55
2021/07/04 13:26:08;;;;;;;5.53;5.10;;;;;;;30.07;33.83;100863.88;6179500;28;20232;-54
2021/07/04 13:29:32;;;;;;;6.05;5.65;;;;;;;29.29;34.61;100857.38;6191361;28;20233;-59
2021/07/04 13:32:56;;;;;;;6.55;6.15;;;;;;;29.07;35.26;100861.91;6192276;28;20618;-56
2021/07/04 13:36:18;;;;;;;6.22;5.82;;;;;;;28.92;35.22;100864.06;6190262;28;20833;-52
2021/07/04 13:39:59;;;;;;;5.43;4.95;;;;;;;29.16;35.07;100855.78;6182980;28;20229;-57
2021/07/04 13:43:21;;;;;;;5.68;5.18;;;;;;;29.34;34.80;100852.47;6187376;28;20951;-52
2021/07/04 13:46:42;;;;;;;6.00;5.50;;;;;;;29.58;34.19;100855.66;6190169;28;20236;-56
2021/07/04 13:50:05;;;;;;;5.88;5.47;;;;;;;28.99;34.64;100859.88;6175554;28;20965;-53
2021/07/04 13:53:27;;;;;;;6.03;5.53;;;;;;;28.78;34.83;100851.84;6162504;28;20241;-54
2021/07/04 13:56:49;;;;;;;6.38;5.88;;;;;;;28.91;35.19;100848.16;6176281;28;20233;-54
2021/07/04 14:00:11;;;;;;;6.30;5.80;;;;;;;29.68;34.66;100849.47;6184790;28;20630;-56
2021/07/04 14:03:32;;;;;;;8.43;6.82;;;;;;;29.63;33.83;100848.03;6198219;28;20248;-56
2021/07/04 14:06:53;;;;;;;6.63;6.13;;;;;;;30.57;32.37;100838.69;6206631;28;20787;-59
2021/07/04 14:10:14;;;;;;;7.78;6.97;;;;;;;30.00;33.64;100834.03;6209877;28;20233;-58
2021/07/04 14:13:36;;;;;;;5.93;5.40;;;;;;;30.15;33.21;100837.16;6203110;28;20241;-57
2021/07/04 14:16:58;;;;;;;6.00;5.43;;;;;;;29.36;34.37;100829.88;6207255;28;20884;-57
2021/07/04 14:20:20;;;;;;;6.32;5.75;;;;;;;29.20;35.07;100824.19;6208640;28;20229;-54
2021/07/04 14:23:40;;;;;;;6.72;5.82;;;;;;;28.45;35.54;100826.09;6205073;28;20236;-58
2021/07/04 14:27:03;;;;;;;7.28;5.78;;;;;;;29.11;35.26;100816.91;6205784;28;20244;-58
2021/07/04 14:30:28;;;;;;;6.00;5.60;;;;;;;28.74;35.28;100822.78;6207979;28;20240;-58
2021/07/04 14:33:49;;;;;;;6.95;6.35;;;;;;;28.39;35.68;100811.38;6210339;28;20608;-57
2021/07/04 14:37:10;;;;;;;10.23;9.38;;;;;;;28.69;35.50;100819.66;6204867;28;20343;-57
2021/07/04 14:40:31;;;;;;;7.20;6.70;;;;;;;29.39;34.65;100810.84;6199381;28;20234;-57
2021/07/04 14:43:51;;;;;;;6.82;6.32;;;;;;;29.40;34.49;100809.00;6209067;28;20551;-59
2021/07/04 14:47:14;;;;;;;6.15;5.65;;;;;;;29.42;34.79;100807.03;6202544;28;20225;-55
2021/07/04 14:50:35;;;;;;;6.00;5.50;;;;;;;29.22;34.79;100806.97;6212825;28;20597;-56
2021/07/04 14:53:56;;;;;;;6.03;5.63;;;;;;;28.88;35.22;100801.00;6210281;28;20256;-58
2021/07/04 14:57:17;;;;;;;5.40;5.00;;;;;;;29.30;35.13;100797.41;6210028;28;20815;-57
2021/07/04 15:00:38;;;;;;;5.18;4.88;;;;;;;29.51;34.58;100792.81;6206038;28;20232;-58
2021/07/04 15:04:00;;;;;;;5.78;5.10;;;;;;;29.33;35.24;100784.56;6211538;28;20232;-59
2021/07/04 15:07:21;;;;;;;6.47;5.30;;;;;;;28.80;35.47;100785.59;6210301;28;20238;-57
2021/07/04 15:10:42;;;;;;;5.63;5.13;;;;;;;29.13;35.28;100791.69;6207662;28;20228;-58
2021/07/04 15:14:04;;;;;;;6.53;6.00;;;;;;;29.12;35.24;100779.28;6211581;28;20233;-57
2021/07/04 15:17:25;;;;;;;6.15;5.60;;;;;;;28.63;35.82;100783.50;6209155;28;20630;-58
2021/07/04 15:20:48;;;;;;;6.35;5.85;;;;;;;29.51;34.32;100779.41;6200536;28;20623;-58
2021/07/04 15:24:09;;;;;;;6.85;5.60;;;;;;;29.77;34.41;100784.28;6207269;28;20233;-58
2021/07/04 15:27:30;;;;;;;6.55;6.05;;;;;;;30.45;33.20;100778.06;6207528;28;20496;-57
2021/07/04 15:30:51;;;;;;;5.68;5.28;;;;;;;30.53;32.47;100783.56;6203756;28;20318;-59
2021/07/04 15:34:12;;;;;;;6.13;5.63;;;;;;;30.32;32.96;100776.53;6210483;28;20225;-58
2021/07/04 15:37:34;;;;;;;6.95;6.35;;;;;;;30.54;32.18;100761.94;6211751;28;20244;-58
2021/07/04 15:40:55;;;;;;;6.22;5.72;;;;;;;30.54;31.18;100753.03;6197192;28;20249;-58
2021/07/04 15:44:17;;;;;;;5.90;5.50;;;;;;;30.52;32.16;100758.53;6198535;28;20228;-58
2021/07/04 15:47:39;;;;;;;4.30;4.03;;;;;;;31.01;31.62;100755.72;6209901;28;20240;-59